»·PEaware :: AAY383 KRDD-KOAK

AAY383 :: KRDD-KOAK

FLIGHT INFORMATION

Flight Status: Arrived
Operator:
Allegiant Air
More flights by this operator :: More flights under this callsign
Pilot: David C. (16084)
Aircraft: AIRBUS A320
(A320)
More flights by this aircraft type
Origin: KRDD Redding Mun
United States
Destination: KOAK Metro Oakland Intl
United States
More flights between these airports :: More routes between these airports
Route: HOMAN3 RBL SPAMY WNDSR2
File this flight plan on PilotEdge
Remarks:
Altitude:
(Current/Filed)
24,000ft
Speed:
(Current/Filed)
467kts
Departed: 02-Oct-20 11:13 AM
Arrived: 02-Oct-20 11:53 AM
Distance/Time
Traveled:
168nm/0:40
Distance/Time
To Go:
Arrived

Flight Plot

Page will automatically refresh every two minutes.

Flight plan parsing failed; only flown route is shown


Map Options




Map Legend


Flown Route
Filed Route
Departure Airport
Arrival Airport
Navaid (VOR, NDB)
Fix

Horizontal Profiles

Position Reports

Time Latitude Longitude Heading Altitude Ground
Speed
02-Oct-20 10:29 40.505816 -122.298984 315 503ft 0kts
02-Oct-20 10:30 40.505816 -122.298984 315 503ft 0kts
02-Oct-20 10:31 40.505816 -122.298984 315 503ft 0kts
02-Oct-20 10:32 40.505816 -122.298984 315 503ft 0kts
02-Oct-20 10:33 40.505816 -122.298984 315 503ft 0kts
02-Oct-20 10:34 40.505816 -122.298984 315 503ft 0kts
02-Oct-20 10:35 40.505816 -122.298984 315 503ft 0kts
02-Oct-20 10:36 40.505816 -122.298984 315 503ft 0kts
02-Oct-20 10:37 40.505816 -122.298984 315 503ft 0kts
02-Oct-20 10:38 40.505816 -122.298984 315 503ft 0kts
02-Oct-20 10:39 40.505816 -122.298984 315 503ft 0kts
02-Oct-20 10:40 40.505816 -122.298984 315 503ft 0kts
02-Oct-20 10:41 40.505816 -122.298984 315 503ft 0kts
02-Oct-20 10:42 40.505816 -122.298984 315 503ft 0kts
02-Oct-20 10:43 40.505816 -122.298984 315 503ft 0kts
02-Oct-20 10:44 40.505816 -122.298984 315 503ft 0kts
02-Oct-20 10:45 40.505816 -122.298984 315 503ft 0kts
02-Oct-20 10:46 40.505816 -122.298984 315 503ft 0kts
02-Oct-20 10:47 40.505816 -122.298984 315 503ft 0kts
02-Oct-20 10:48 40.505816 -122.298984 315 503ft 0kts
02-Oct-20 10:49 40.505816 -122.298984 315 503ft 0kts
02-Oct-20 10:50 40.505816 -122.298984 315 503ft 0kts
02-Oct-20 10:51 40.505816 -122.298984 315 503ft 0kts
02-Oct-20 10:53 40.505816 -122.298984 315 503ft 0kts
02-Oct-20 10:54 40.505816 -122.298984 315 503ft 0kts
02-Oct-20 10:55 40.505816 -122.298984 315 503ft 0kts
02-Oct-20 10:56 40.505816 -122.298984 315 503ft 0kts
02-Oct-20 10:57 40.505816 -122.298984 315 503ft 0kts
02-Oct-20 10:58 40.505816 -122.298984 315 503ft 0kts
02-Oct-20 10:59 40.505816 -122.298984 315 503ft 0kts
02-Oct-20 11:00 40.505816 -122.298984 315 503ft 0kts
02-Oct-20 11:01 40.505816 -122.298984 315 503ft 0kts
02-Oct-20 11:02 40.505816 -122.298984 315 503ft 0kts
02-Oct-20 11:03 40.505532 -122.298694 330 503ft 0kts
02-Oct-20 11:04 40.505533 -122.298694 330 503ft 0kts
02-Oct-20 11:05 40.505533 -122.298694 330 503ft 0kts
02-Oct-20 11:06 40.505533 -122.298694 330 503ft 0kts
02-Oct-20 11:06 40.505533 -122.298694 330 503ft 0kts
02-Oct-20 11:08 40.506445 -122.298633 9 503ft 12kts
02-Oct-20 11:09 40.511088 -122.296294 359 504ft 21kts
02-Oct-20 11:10 40.516840 -122.296305 1 511ft 20kts
02-Oct-20 11:11 40.520069 -122.296104 37 513ft 0kts
02-Oct-20 11:11 40.520092 -122.296080 39 513ft 2kts
02-Oct-20 11:12 40.516480 -122.294839 180 510ft 89kts
02-Oct-20 11:14 40.468282 -122.268779 107 2430ft 227kts
02-Oct-20 11:14 40.439140 -122.199858 121 4554ft 284kts
02-Oct-20 11:15 40.379751 -122.139385 195 7830ft 289kts
02-Oct-20 11:16 40.302215 -122.165661 198 11113ft 300kts
02-Oct-20 11:17 40.214106 -122.196334 198 13084ft 340kts
02-Oct-20 11:18 40.121678 -122.228492 198 15722ft 348kts
02-Oct-20 11:19 40.027123 -122.265129 200 17964ft 358kts
02-Oct-20 11:20 39.930212 -122.303765 200 19987ft 368kts
02-Oct-20 11:21 39.831419 -122.343044 200 21822ft 378kts
02-Oct-20 11:22 39.729372 -122.383498 200 23545ft 387kts
02-Oct-20 11:23 39.622024 -122.425996 200 24079ft 420kts
02-Oct-20 11:24 39.505019 -122.472089 200 24081ft 448kts
02-Oct-20 11:25 39.385115 -122.519016 200 24082ft 448kts
02-Oct-20 11:26 39.265003 -122.565966 200 24082ft 448kts
02-Oct-20 11:27 39.140307 -122.582732 178 24081ft 460kts
02-Oct-20 11:28 39.014332 -122.561782 173 23685ft 436kts
02-Oct-20 11:29 38.901125 -122.533256 172 22637ft 393kts
02-Oct-20 11:30 38.797424 -122.507439 172 20165ft 378kts
02-Oct-20 11:31 38.696950 -122.482433 172 18491ft 359kts
02-Oct-20 11:32 38.598939 -122.466055 176 16667ft 348kts
02-Oct-20 11:33 38.503426 -122.451488 176 14801ft 339kts
02-Oct-20 11:34 38.410592 -122.437369 176 12996ft 330kts
02-Oct-20 11:35 38.320458 -122.423697 176 11272ft 321kts
02-Oct-20 11:36 38.234520 -122.410644 176 10153ft 285kts
02-Oct-20 11:37 38.157992 -122.398908 175 9250ft 283kts
02-Oct-20 11:38 38.078826 -122.386859 175 7931ft 284kts
02-Oct-20 11:39 38.004084 -122.362846 144 6874ft 283kts
02-Oct-20 11:40 37.941517 -122.302938 144 6319ft 283kts
02-Oct-20 11:41 37.879455 -122.243734 144 5789ft 282kts
02-Oct-20 11:42 37.817026 -122.184346 144 5259ft 279kts
02-Oct-20 11:43 37.762557 -122.117495 129 5005ft 258kts
02-Oct-20 11:44 37.721680 -122.051219 128 5030ft 218kts
02-Oct-20 11:45 37.682668 -121.993772 150 4862ft 214kts
02-Oct-20 11:46 37.631070 -121.998584 221 3804ft 193kts
02-Oct-20 11:47 37.615435 -122.056620 279 2763ft 181kts
02-Oct-20 11:48 37.634985 -122.113524 307 2000ft 176kts
02-Oct-20 11:49 37.664039 -122.157473 308 1143ft 140kts
02-Oct-20 11:50 37.689020 -122.195170 308 437ft 138kts
02-Oct-20 11:51 37.710312 -122.227564 309 13ft 50kts
02-Oct-20 11:52 37.714283 -122.231468 349 13ft 0kts
02-Oct-20 11:53 37.714129 -122.229496 131 13ft 20kts
02-Oct-20 11:54 37.712063 -122.223334 37 13ft 23kts
02-Oct-20 11:55 37.709892 -122.217628 129 13ft 24kts
02-Oct-20 11:56 37.710807 -122.213945 46 13ft 7kts
02-Oct-20 11:57 37.711245 -122.213103 59 13ft 0kts
02-Oct-20 11:58 37.711245 -122.213103 59 13ft 0kts

Navigation Log

Ident Type
Flight plan parsing failed, navigation log unavailable